Time;durP1;ratioP1;P1;durP2;ratioP2;P2;SDS_P1;SDS_P2;PMS_P1;PMS_P2;Temp;Humidity;BMP_temperature;BMP_pressure;BME280_temperature;BME280_humidity;BME280_pressure;Samples;Min_cycle;Max_cycle;Signal;HPM_P1;HPM_P2
2021/04/24 00:02:11;;;;;;;6.40;5.10;;;6.80;97.30;;;;;;5056275;28;20566;-83
2021/04/24 00:04:38;;;;;;;8.27;5.40;;;6.70;97.30;;;;;;5054233;28;20284;-83
2021/04/24 00:07:08;;;;;;;7.00;5.27;;;6.60;97.60;;;;;;5058500;28;20491;-83
2021/04/24 00:09:35;;;;;;;6.47;5.03;;;6.50;97.80;;;;;;5056315;28;20501;-83
2021/04/24 00:12:01;;;;;;;7.20;5.03;;;6.50;97.80;;;;;;5045401;28;20443;-83
2021/04/24 00:14:27;;;;;;;8.40;5.37;;;6.40;97.80;;;;;;5052714;28;20490;-83
2021/04/24 00:16:53;;;;;;;6.50;5.37;;;6.30;98.00;;;;;;5046053;28;20441;-83
2021/04/24 00:19:19;;;;;;;6.00;5.40;;;6.20;98.30;;;;;;5062925;28;20195;-83
2021/04/24 00:21:45;;;;;;;10.03;5.60;;;6.10;98.50;;;;;;5048257;28;21270;-83
2021/04/24 00:24:11;;;;;;;5.17;4.60;;;6.00;98.80;;;;;;5053827;28;20526;-83
2021/04/24 00:26:37;;;;;;;6.57;5.03;;;6.00;99.10;;;;;;5067773;28;20526;-82
2021/04/24 00:29:03;;;;;;;6.10;4.80;;;6.00;99.60;;;;;;5049139;28;20477;-83
2021/04/24 00:31:29;;;;;;;6.17;5.13;;;6.00;99.40;;;;;;5053509;28;20869;-83
2021/04/24 00:33:54;;;;;;;6.10;5.47;;;6.00;99.20;;;;;;5054009;28;20490;-82
2021/04/24 00:36:20;;;;;;;9.60;6.43;;;5.90;99.50;;;;;;5069013;28;20248;-83
2021/04/24 00:38:46;;;;;;;7.20;5.30;;;6.00;99.30;;;;;;5064840;28;20192;-82
2021/04/24 00:41:11;;;;;;;10.00;5.70;;;5.90;99.30;;;;;;5058691;28;20673;-83
2021/04/24 00:43:37;;;;;;;6.20;5.60;;;6.00;99.50;;;;;;5058529;28;20193;-84
2021/04/24 00:46:11;;;;;;;5.90;5.10;;;5.90;99.90;;;;;;5059411;28;20540;-83
2021/04/24 00:48:37;;;;;;;6.37;5.37;;;5.90;99.80;;;;;;5055795;28;20193;-83
2021/04/24 00:51:04;;;;;;;6.07;5.43;;;5.80;99.90;;;;;;5056901;28;20437;-83
2021/04/24 00:53:29;;;;;;;9.90;5.70;;;5.70;99.60;;;;;;5058304;28;20442;-84
2021/04/24 00:55:55;;;;;;;10.33;5.87;;;5.80;99.70;;;;;;5057688;28;20485;-84
2021/04/24 00:58:21;;;;;;;10.73;5.80;;;5.80;99.90;;;;;;5056095;28;20213;-84
2021/04/24 01:00:47;;;;;;;6.10;5.50;;;5.70;99.90;;;;;;5056740;28;20525;-84
2021/04/24 01:03:12;;;;;;;8.43;6.40;;;5.70;99.90;;;;;;5074832;28;20516;-84
2021/04/24 01:05:42;;;;;;;7.00;5.53;;;5.60;99.90;;;;;;5052159;28;20206;-84
2021/04/24 01:08:08;;;;;;;8.87;6.20;;;5.60;99.60;;;;;;5058720;28;20591;-84
2021/04/24 01:10:39;;;;;;;6.67;5.43;;;5.40;99.90;;;;;;5069670;28;20528;-84
2021/04/24 01:13:06;;;;;;;8.87;5.40;;;5.40;99.90;;;;;;5056634;28;20510;-84
2021/04/24 01:15:32;;;;;;;8.73;5.43;;;5.30;99.90;;;;;;5055743;28;20424;-83
2021/04/24 01:17:58;;;;;;;7.73;6.10;;;5.30;99.90;;;;;;5057314;28;20521;-83
2021/04/24 01:20:24;;;;;;;8.33;5.50;;;5.30;99.90;;;;;;5058549;28;20436;-83
2021/04/24 01:22:50;;;;;;;10.73;5.43;;;5.30;99.90;;;;;;5056293;28;20230;-83
2021/04/24 01:25:18;;;;;;;5.57;4.97;;;5.30;99.90;;;;;;5050496;28;20473;-83
2021/04/24 01:27:46;;;;;;;7.53;5.63;;;5.30;99.90;;;;;;5056602;28;20459;-84
2021/04/24 01:30:13;;;;;;;6.93;5.10;;;5.20;99.90;;;;;;5055731;28;20510;-83
2021/04/24 01:32:38;;;;;;;7.73;5.40;;;5.30;99.90;;;;;;5058212;28;20956;-84
2021/04/24 01:35:10;;;;;;;6.27;5.40;;;5.30;99.90;;;;;;5056277;28;20444;-84
2021/04/24 01:37:36;;;;;;;7.07;5.00;;;5.30;99.90;;;;;;5055224;28;20567;-84
2021/04/24 01:40:04;;;;;;;7.43;5.73;;;5.20;99.90;;;;;;5055890;28;20436;-83
2021/04/24 01:42:30;;;;;;;9.17;5.50;;;5.20;99.90;;;;;;5057459;28;20207;-84
2021/04/24 01:44:56;;;;;;;6.90;5.00;;;5.10;99.90;;;;;;5056125;28;20938;-84
2021/04/24 01:47:22;;;;;;;7.37;4.90;;;5.10;99.90;;;;;;5058004;28;20646;-84
2021/04/24 01:49:47;;;;;;;6.43;5.33;;;5.00;99.90;;;;;;5057700;28;20436;-83
2021/04/24 01:52:13;;;;;;;8.37;5.83;;;4.90;99.90;;;;;;5055964;28;20180;-83
2021/04/24 01:54:38;;;;;;;6.00;5.40;;;4.90;99.90;;;;;;5054244;28;20182;-83
2021/04/24 01:57:04;;;;;;;7.33;5.57;;;4.80;99.90;;;;;;5058493;28;20182;-83
2021/04/24 01:59:32;;;;;;;8.37;5.30;;;4.80;99.90;;;;;;5055254;28;20191;-83
2021/04/24 02:01:58;;;;;;;8.40;5.50;;;4.80;99.90;;;;;;5055401;28;20448;-83
2021/04/24 02:04:27;;;;;;;7.00;5.20;;;4.70;99.90;;;;;;5056301;28;20467;-83
2021/04/24 02:06:54;;;;;;;7.90;5.70;;;4.70;99.90;;;;;;5049534;28;20842;-83
2021/04/24 02:09:21;;;;;;;7.40;5.30;;;4.60;99.90;;;;;;5073395;28;20441;-83
2021/04/24 02:12:08;;;;;;;7.63;5.23;;;4.70;99.90;;;;;;5072142;28;20432;-83
2021/04/24 02:14:45;;;;;;;6.33;5.43;;;4.60;99.90;;;;;;5071706;28;20432;-83
2021/04/24 02:17:40;;;;;;;8.80;5.53;;;4.50;99.90;;;;;;5056362;28;20508;-83
2021/04/24 02:20:07;;;;;;;7.97;6.33;;;4.50;99.90;;;;;;5037867;28;20436;-82
2021/04/24 02:22:32;;;;;;;7.90;5.87;;;4.50;99.90;;;;;;5054487;28;20441;-82
2021/04/24 02:25:01;;;;;;;9.67;5.73;;;4.40;99.90;;;;;;5057896;28;20481;-83
2021/04/24 02:27:28;;;;;;;10.60;5.53;;;4.40;99.90;;;;;;5055432;28;20708;-83
2021/04/24 02:29:55;;;;;;;6.83;6.13;;;4.40;99.90;;;;;;5052449;28;20833;-83
2021/04/24 02:32:23;;;;;;;9.17;6.23;;;4.40;99.90;;;;;;5059880;28;20869;-83
2021/04/24 02:34:49;;;;;;;8.00;5.20;;;4.30;99.90;;;;;;5059080;28;20489;-83
2021/04/24 02:37:16;;;;;;;7.00;5.40;;;4.30;99.90;;;;;;5056468;28;20841;-82
2021/04/24 02:39:46;;;;;;;7.87;5.87;;;4.20;99.90;;;;;;5073489;28;20437;-83
2021/04/24 02:42:16;;;;;;;11.33;5.30;;;4.20;99.90;;;;;;5071781;28;20594;-82
2021/04/24 02:44:42;;;;;;;7.53;5.13;;;4.20;99.90;;;;;;5052350;28;20446;-83
2021/04/24 02:47:09;;;;;;;6.80;5.70;;;4.20;99.90;;;;;;5051517;28;20504;-83
2021/04/24 02:49:35;;;;;;;7.20;5.00;;;4.10;99.90;;;;;;5066061;28;20959;-83
2021/04/24 02:52:01;;;;;;;8.20;5.40;;;4.10;99.90;;;;;;5054782;28;20520;-83
2021/04/24 02:54:27;;;;;;;5.07;4.50;;;4.20;99.90;;;;;;5057921;28;20413;-83
2021/04/24 02:56:53;;;;;;;10.37;5.50;;;4.30;99.90;;;;;;5051402;28;20517;-83
2021/04/24 02:59:19;;;;;;;7.53;5.00;;;4.40;99.90;;;;;;5053009;28;20278;-83
2021/04/24 03:01:46;;;;;;;7.30;4.77;;;4.40;99.90;;;;;;5055617;28;20557;-82
2021/04/24 03:04:13;;;;;;;6.50;4.67;;;4.50;99.90;;;;;;5054244;28;20426;-83
2021/04/24 03:06:40;;;;;;;9.43;4.87;;;4.40;99.90;;;;;;5060077;28;20473;-82
2021/04/24 03:09:05;;;;;;;5.47;4.90;;;4.40;99.90;;;;;;5052138;28;20422;-83
2021/04/24 03:11:32;;;;;;;6.73;4.77;;;4.40;99.90;;;;;;5051459;28;21141;-82
2021/04/24 03:13:58;;;;;;;4.80;4.20;;;4.40;99.90;;;;;;5050055;28;20183;-82
2021/04/24 03:16:24;;;;;;;6.67;5.10;;;4.30;99.90;;;;;;5053778;28;20864;-83
2021/04/24 03:18:53;;;;;;;6.67;4.60;;;4.10;99.90;;;;;;5056413;28;20433;-83
2021/04/24 03:21:19;;;;;;;6.30;4.73;;;4.00;99.90;;;;;;5056703;28;20442;-83
2021/04/24 03:23:45;;;;;;;5.13;4.63;;;3.90;99.90;;;;;;5056344;28;20507;-83
2021/04/24 03:26:10;;;;;;;6.30;5.10;;;3.90;99.90;;;;;;5056473;28;20472;-83
2021/04/24 03:28:36;;;;;;;7.83;5.53;;;3.70;99.90;;;;;;5058755;28;20674;-82
2021/04/24 03:31:02;;;;;;;6.50;5.20;;;3.60;99.90;;;;;;5050692;28;20186;-82
2021/04/24 03:33:27;;;;;;;8.53;5.40;;;3.60;99.90;;;;;;5053272;28;20180;-83
2021/04/24 03:35:53;;;;;;;8.30;5.50;;;3.50;99.90;;;;;;5050121;28;20222;-83
2021/04/24 03:38:19;;;;;;;5.57;5.03;;;3.40;99.90;;;;;;5051872;28;20601;-83
2021/04/24 03:40:44;;;;;;;6.43;4.90;;;3.30;99.90;;;;;;5052235;28;20198;-83
2021/04/24 03:43:10;;;;;;;6.37;4.80;;;3.20;99.90;;;;;;5056044;28;20182;-83
2021/04/24 03:45:36;;;;;;;8.43;5.90;;;3.10;99.90;;;;;;5051403;28;20431;-83
2021/04/24 03:48:02;;;;;;;9.97;6.13;;;3.10;99.90;;;;;;5054138;28;20198;-82
2021/04/24 03:50:28;;;;;;;9.53;6.07;;;3.20;99.90;;;;;;5055824;28;20182;-83
2021/04/24 03:52:54;;;;;;;8.43;5.50;;;3.30;99.90;;;;;;5056125;28;20432;-83
2021/04/24 03:55:22;;;;;;;6.77;5.07;;;3.30;99.90;;;;;;5057226;28;20492;-83
2021/04/24 03:57:50;;;;;;;7.80;5.70;;;3.30;99.90;;;;;;5053887;28;20590;-83
2021/04/24 04:00:18;;;;;;;7.03;5.67;;;3.30;99.90;;;;;;5051076;28;20438;-82
2021/04/24 04:02:56;;;;;;;12.63;5.53;;;3.30;99.90;;;;;;5052217;28;20449;-83
2021/04/24 04:05:25;;;;;;;8.53;6.00;;;3.30;99.90;;;;;;5056868;28;20475;-83
2021/04/24 04:07:54;;;;;;;7.60;4.77;;;3.30;99.90;;;;;;5056620;28;21533;-83
2021/04/24 04:10:20;;;;;;;7.10;5.27;;;3.40;99.90;;;;;;5049922;28;20479;-83
2021/04/24 04:12:46;;;;;;;6.73;5.13;;;3.50;99.90;;;;;;5054424;28;20440;-82
2021/04/24 04:15:13;;;;;;;4.90;4.37;;;3.50;99.90;;;;;;5051409;28;20434;-82
2021/04/24 04:17:39;;;;;;;7.00;4.90;;;3.60;99.90;;;;;;5054281;28;20449;-83
2021/04/24 04:20:10;;;;;;;7.90;4.47;;;3.70;99.90;;;;;;5059477;28;20811;-82
2021/04/24 04:22:36;;;;;;;5.90;4.87;;;3.70;99.90;;;;;;5074720;28;20195;-82
2021/04/24 04:25:04;;;;;;;8.03;4.50;;;3.70;99.90;;;;;;5059647;28;20436;-82
2021/04/24 04:27:30;;;;;;;5.40;4.50;;;3.70;99.90;;;;;;5060044;28;20917;-83
2021/04/24 04:29:55;;;;;;;8.70;4.53;;;3.60;99.90;;;;;;5061032;28;20660;-83
2021/04/24 04:32:22;;;;;;;7.20;5.93;;;3.50;99.90;;;;;;5057178;28;20440;-83
2021/04/24 04:34:47;;;;;;;11.13;5.00;;;3.50;99.90;;;;;;5058445;28;20593;-84
2021/04/24 04:37:16;;;;;;;6.43;4.70;;;3.50;99.90;;;;;;5055613;28;20538;-83
2021/04/24 04:39:42;;;;;;;7.33;4.83;;;3.50;99.90;;;;;;5054221;28;20969;-84
2021/04/24 04:42:08;;;;;;;7.33;4.40;;;3.50;99.90;;;;;;5054795;28;20220;-83
2021/04/24 04:44:34;;;;;;;5.70;4.80;;;3.50;99.90;;;;;;5058870;28;20191;-83
2021/04/24 04:47:03;;;;;;;7.50;4.87;;;3.50;99.90;;;;;;5056292;28;20443;-83
2021/04/24 04:49:29;;;;;;;7.77;4.77;;;3.50;99.90;;;;;;5057048;28;20538;-83
2021/04/24 04:51:54;;;;;;;8.37;4.30;;;3.50;99.90;;;;;;5061525;28;20538;-83
2021/04/24 04:54:20;;;;;;;8.97;5.67;;;3.60;99.90;;;;;;5055596;28;20186;-83
2021/04/24 04:56:46;;;;;;;8.50;5.20;;;3.60;99.90;;;;;;5055974;28;20214;-83
2021/04/24 04:59:11;;;;;;;6.07;5.00;;;3.60;99.90;;;;;;5058255;28;20394;-83
2021/04/24 05:01:37;;;;;;;7.50;4.90;;;3.60;99.90;;;;;;5055188;28;20211;-83
2021/04/24 05:04:03;;;;;;;6.50;4.63;;;3.80;99.90;;;;;;5054720;28;20187;-83
2021/04/24 05:06:28;;;;;;;7.70;5.00;;;3.80;99.90;;;;;;5053457;28;20213;-83
2021/04/24 05:08:54;;;;;;;6.80;5.23;;;3.90;99.90;;;;;;5063885;28;20328;-83
2021/04/24 05:11:19;;;;;;;14.80;4.93;;;3.90;99.90;;;;;;5055060;28;20959;-83
2021/04/24 05:13:45;;;;;;;5.90;5.00;;;4.00;99.90;;;;;;5062234;28;20183;-83
2021/04/24 05:16:11;;;;;;;8.97;5.10;;;3.90;99.90;;;;;;5060212;28;20549;-83
2021/04/24 05:18:37;;;;;;;7.73;4.97;;;3.80;99.90;;;;;;5056304;28;20183;-83
2021/04/24 05:21:03;;;;;;;8.67;5.47;;;3.90;99.90;;;;;;5055490;28;20457;-83
2021/04/24 05:23:29;;;;;;;8.33;5.10;;;4.00;99.90;;;;;;5051355;28;20191;-83
2021/04/24 05:25:54;;;;;;;10.00;4.83;;;4.10;99.90;;;;;;5056054;28;21132;-84
2021/04/24 05:28:20;;;;;;;5.33;4.83;;;4.10;99.90;;;;;;5059023;28;20475;-82
2021/04/24 05:30:46;;;;;;;7.27;6.00;;;4.30;99.90;;;;;;5056587;28;20202;-83
2021/04/24 05:33:12;;;;;;;6.67;5.23;;;4.60;99.90;;;;;;5061218;28;20436;-83
2021/04/24 05:35:38;;;;;;;11.80;5.77;;;4.90;99.90;;;;;;5055984;28;20195;-84
2021/04/24 05:38:04;;;;;;;5.47;4.57;;;4.90;99.90;;;;;;5058587;28;20246;-84
2021/04/24 05:40:30;;;;;;;6.23;5.63;;;4.90;99.90;;;;;;5053304;28;20437;-84
2021/04/24 05:42:56;;;;;;;9.10;5.53;;;4.90;99.90;;;;;;5059150;28;20471;-84
2021/04/24 05:45:21;;;;;;;9.40;5.03;;;5.00;99.90;;;;;;5070581;28;20487;-83
2021/04/24 05:47:49;;;;;;;6.93;5.43;;;5.20;99.90;;;;;;5057970;28;20179;-82
2021/04/24 05:50:20;;;;;;;6.80;5.30;;;5.20;99.90;;;;;;5073229;28;20229;-83
2021/04/24 05:52:45;;;;;;;10.90;5.53;;;5.20;99.90;;;;;;5057824;28;20437;-83
2021/04/24 05:55:12;;;;;;;9.00;6.40;;;5.00;99.90;;;;;;5054184;28;20451;-83
2021/04/24 05:57:39;;;;;;;9.90;6.60;;;4.80;99.90;;;;;;5055819;28;20185;-83
2021/04/24 06:00:11;;;;;;;8.10;5.63;;;4.80;99.90;;;;;;5050352;28;20883;-83
2021/04/24 06:02:37;;;;;;;9.10;5.73;;;4.90;99.90;;;;;;5054487;28;20459;-84
2021/04/24 06:05:17;;;;;;;7.67;5.60;;;5.00;99.90;;;;;;5051918;28;20425;-87
2021/04/24 06:07:44;;;;;;;11.90;5.27;;;5.10;99.90;;;;;;5054264;28;20226;-83
2021/04/24 06:10:13;;;;;;;6.47;5.63;;;5.30;99.90;;;;;;5057337;28;20556;-84
2021/04/24 06:12:40;;;;;;;7.70;6.10;;;5.40;99.90;;;;;;5069766;28;20833;-84
2021/04/24 06:15:09;;;;;;;6.40;5.70;;;5.60;99.90;;;;;;5051291;28;20428;-84
2021/04/24 06:17:35;;;;;;;11.20;5.50;;;5.70;99.90;;;;;;5052353;28;20466;-84
2021/04/24 06:20:01;;;;;;;7.07;5.00;;;5.80;99.90;;;;;;5053597;28;20757;-84
2021/04/24 06:22:26;;;;;;;19.00;14.53;;;6.00;99.90;;;;;;5056684;28;20472;-85
2021/04/24 06:24:52;;;;;;;18.63;14.20;;;6.10;99.90;;;;;;5055870;28;20452;-85
2021/04/24 06:27:19;;;;;;;8.10;6.60;;;6.30;99.90;;;;;;5049961;28;20202;-86
2021/04/24 06:29:45;;;;;;;7.30;5.43;;;6.50;99.90;;;;;;5049480;28;20194;-81
2021/04/24 06:32:10;;;;;;;8.77;6.10;;;6.60;99.90;;;;;;5049255;28;20946;-83
2021/04/24 06:34:36;;;;;;;8.60;5.67;;;6.80;99.90;;;;;;5047718;28;20194;-83
2021/04/24 06:37:02;;;;;;;9.00;6.13;;;6.90;99.40;;;;;;5045242;28;20210;-83
2021/04/24 06:39:28;;;;;;;9.30;5.90;;;7.00;99.30;;;;;;5044846;28;20657;-83
2021/04/24 06:41:54;;;;;;;10.13;6.50;;;7.20;99.40;;;;;;5051607;28;20233;-83
2021/04/24 06:44:19;;;;;;;6.90;6.20;;;7.30;98.80;;;;;;5046978;28;20532;-82
2021/04/24 06:46:45;;;;;;;10.70;6.83;;;7.30;98.90;;;;;;5052330;28;20436;-82
2021/04/24 06:49:11;;;;;;;8.77;6.07;;;7.50;98.30;;;;;;5045223;28;20209;-82
2021/04/24 06:51:37;;;;;;;6.93;6.23;;;7.60;98.60;;;;;;5051386;28;20677;-82
2021/04/24 06:54:04;;;;;;;9.60;6.43;;;7.40;98.80;;;;;;5046849;28;20564;-82
2021/04/24 06:56:29;;;;;;;10.20;6.00;;;7.30;99.70;;;;;;5066389;28;21781;-83
2021/04/24 06:58:55;;;;;;;9.73;6.87;;;7.40;99.60;;;;;;5049171;28;20440;-82
2021/04/24 07:01:21;;;;;;;8.83;6.60;;;7.70;99.70;;;;;;5048529;28;20200;-83
2021/04/24 07:03:46;;;;;;;8.60;6.47;;;7.80;98.80;;;;;;5045134;28;20223;-82
2021/04/24 07:06:12;;;;;;;8.60;6.83;;;7.90;99.10;;;;;;5042607;28;20194;-83
2021/04/24 07:08:38;;;;;;;13.00;6.50;;;8.00;97.00;;;;;;5044766;28;20198;-82
2021/04/24 07:11:04;;;;;;;8.80;6.53;;;8.00;96.80;;;;;;5045576;28;20190;-83
2021/04/24 07:13:29;;;;;;;12.20;7.20;;;8.20;94.30;;;;;;5049827;28;20568;-82
2021/04/24 07:16:02;;;;;;;12.70;6.53;;;8.40;94.40;;;;;;5045582;28;20208;-83
2021/04/24 07:18:27;;;;;;;9.90;6.60;;;8.50;94.50;;;;;;5045904;28;20569;-83
2021/04/24 07:20:53;;;;;;;14.20;7.73;;;8.70;94.60;;;;;;5045457;28;20436;-82
2021/04/24 07:23:19;;;;;;;7.00;6.30;;;8.80;93.90;;;;;;5046828;28;20199;-82
2021/04/24 07:25:44;;;;;;;9.63;6.97;;;8.90;93.50;;;;;;5046547;28;20208;-83
2021/04/24 07:28:10;;;;;;;9.43;6.90;;;9.10;93.50;;;;;;5050509;28;20182;-83
2021/04/24 07:30:36;;;;;;;9.33;7.03;;;9.30;93.10;;;;;;5048295;28;20527;-83
2021/04/24 07:33:01;;;;;;;10.13;6.60;;;9.40;93.00;;;;;;5046189;28;20183;-83
2021/04/24 07:35:27;;;;;;;8.77;6.40;;;9.80;92.80;;;;;;5048255;28;20290;-82
2021/04/24 07:37:53;;;;;;;8.93;6.83;;;10.20;92.00;;;;;;5044292;28;20225;-83
2021/04/24 07:40:18;;;;;;;9.17;6.97;;;10.50;90.60;;;;;;5043645;28;20194;-84
2021/04/24 07:42:44;;;;;;;12.17;7.27;;;10.60;87.90;;;;;;5046177;28;20204;-83
2021/04/24 07:45:11;;;;;;;10.83;7.40;;;10.50;86.50;;;;;;5044012;28;20325;-83
2021/04/24 07:47:36;;;;;;;8.70;6.83;;;10.40;86.50;;;;;;5044532;28;20271;-82
2021/04/24 07:50:03;;;;;;;10.20;7.40;;;10.40;88.40;;;;;;5046234;28;20591;-83
2021/04/24 07:52:29;;;;;;;8.10;7.00;;;10.70;87.20;;;;;;5047765;28;20306;-83
2021/04/24 07:54:55;;;;;;;12.60;7.17;;;10.80;85.50;;;;;;5052817;28;20554;-83
2021/04/24 07:57:21;;;;;;;9.97;6.77;;;11.00;86.80;;;;;;5055176;28;20430;-83
2021/04/24 07:59:46;;;;;;;10.40;7.30;;;11.40;85.20;;;;;;5049305;28;20232;-83
2021/04/24 08:02:13;;;;;;;8.93;6.80;;;11.50;83.90;;;;;;5059222;28;20200;-83
2021/04/24 08:04:39;;;;;;;10.57;7.83;;;11.60;85.20;;;;;;5049994;28;20189;-83
2021/04/24 08:07:07;;;;;;;8.13;7.10;;;12.00;85.70;;;;;;5051798;28;20752;-84
2021/04/24 08:09:32;;;;;;;9.40;7.43;;;12.30;84.80;;;;;;5049960;28;20433;-83
2021/04/24 08:11:58;;;;;;;9.70;7.30;;;12.70;82.50;;;;;;5051040;28;20447;-84
2021/04/24 08:14:24;;;;;;;12.07;7.70;;;12.80;81.70;;;;;;5053907;28;20301;-83
2021/04/24 08:16:49;;;;;;;12.63;6.90;;;12.80;82.30;;;;;;5052397;28;20272;-83
2021/04/24 08:19:16;;;;;;;9.53;7.83;;;12.70;81.90;;;;;;5055692;28;20217;-84
2021/04/24 08:21:43;;;;;;;11.20;7.70;;;12.70;81.20;;;;;;5046938;28;20322;-84
2021/04/24 08:24:11;;;;;;;13.77;7.80;;;12.80;82.50;;;;;;5074058;28;20432;-83
2021/04/24 08:26:37;;;;;;;14.27;8.03;;;12.90;82.10;;;;;;5055059;28;21086;-84
2021/04/24 08:29:06;;;;;;;8.77;6.87;;;13.00;83.20;;;;;;5050873;28;20486;-83
2021/04/24 08:31:33;;;;;;;10.93;8.53;;;13.00;83.20;;;;;;5048546;28;20452;-84
2021/04/24 08:33:59;;;;;;;7.43;6.63;;;13.20;82.70;;;;;;5050651;28;20536;-84
2021/04/24 08:36:25;;;;;;;8.17;7.00;;;13.40;83.50;;;;;;5052349;28;20571;-83
2021/04/24 08:38:51;;;;;;;10.47;6.80;;;13.80;83.90;;;;;;5055474;28;20195;-85
2021/04/24 08:41:18;;;;;;;9.70;7.00;;;14.20;85.00;;;;;;5053832;28;20197;-84
2021/04/24 08:43:43;;;;;;;9.30;6.80;;;14.60;79.70;;;;;;5033700;28;20486;-84
2021/04/24 08:46:14;;;;;;;9.17;7.10;;;14.90;81.00;;;;;;5049854;28;20490;-84
2021/04/24 08:48:40;;;;;;;9.37;7.20;;;15.10;79.30;;;;;;5046527;28;20293;-83
2021/04/24 08:51:05;;;;;;;8.40;7.50;;;15.20;73.90;;;;;;5068724;28;20526;-84
2021/04/24 08:53:31;;;;;;;10.33;7.77;;;15.10;75.90;;;;;;5047147;28;20191;-84
2021/04/24 08:55:57;;;;;;;8.50;7.03;;;15.20;75.50;;;;;;5049394;28;20198;-84
2021/04/24 08:58:22;;;;;;;9.63;7.33;;;15.50;77.20;;;;;;5052795;28;20202;-84
2021/04/24 09:00:52;;;;;;;8.43;6.47;;;15.60;71.60;;;;;;5047607;28;20191;-84
2021/04/24 09:03:21;;;;;;;9.40;6.97;;;15.50;68.30;;;;;;5052203;28;20182;-83
2021/04/24 09:05:56;;;;;;;7.80;6.90;;;15.30;69.10;;;;;;5051714;28;20444;-83
2021/04/24 09:08:24;;;;;;;11.17;6.90;;;15.40;70.20;;;;;;5054329;28;20443;-84
2021/04/24 09:10:49;;;;;;;13.00;7.37;;;15.70;67.00;;;;;;5056236;28;20437;-82
2021/04/24 09:13:20;;;;;;;9.93;7.63;;;15.50;63.40;;;;;;5055479;28;22450;-83
2021/04/24 09:15:47;;;;;;;9.73;6.97;;;15.30;66.60;;;;;;5057076;28;20841;-83
2021/04/24 09:18:15;;;;;;;8.43;7.17;;;15.50;70.00;;;;;;5053382;28;20508;-83
2021/04/24 09:20:51;;;;;;;8.40;7.40;;;16.00;69.70;;;;;;5055994;28;20882;-83
2021/04/24 09:23:19;;;;;;;10.10;7.33;;;16.10;72.80;;;;;;5053083;28;20447;-83
2021/04/24 09:25:58;;;;;;;10.90;8.10;;;16.50;68.30;;;;;;5057419;28;20449;-82
2021/04/24 09:28:32;;;;;;;10.63;7.43;;;16.50;61.60;;;;;;5052695;28;20436;-82
2021/04/24 09:31:21;;;;;;;10.30;7.37;;;16.40;62.90;;;;;;5050196;28;20447;-81
2021/04/24 09:33:49;;;;;;;10.43;6.90;;;16.60;56.70;;;;;;5074531;28;20436;-82
2021/04/24 09:36:17;;;;;;;11.83;7.30;;;17.00;57.60;;;;;;5067493;28;20475;-83
2021/04/24 09:38:45;;;;;;;11.70;7.13;;;17.20;58.10;;;;;;5053353;28;20985;-83
2021/04/24 09:41:27;;;;;;;10.03;7.13;;;17.20;58.20;;;;;;5073231;28;20448;-82
2021/04/24 09:44:13;;;;;;;10.53;7.50;;;17.30;58.10;;;;;;5058376;28;20443;-82
2021/04/24 09:46:47;;;;;;;8.07;7.23;;;17.40;50.60;;;;;;5055539;28;20428;-82
2021/04/24 09:49:20;;;;;;;10.00;7.97;;;17.70;52.00;;;;;;5056280;28;20436;-82
2021/04/24 09:51:59;;;;;;;10.00;7.30;;;17.80;49.40;;;;;;5055603;28;21543;-82
2021/04/24 09:54:35;;;;;;;8.23;6.57;;;17.90;46.20;;;;;;5055680;28;20440;-82
2021/04/24 09:57:05;;;;;;;10.10;7.67;;;18.10;42.90;;;;;;5055389;28;20499;-82
2021/04/24 09:59:31;;;;;;;9.40;7.47;;;18.20;45.70;;;;;;5050443;28;20455;-82
2021/04/24 10:02:01;;;;;;;8.33;7.47;;;18.30;47.30;;;;;;5058460;28;20616;-83
2021/04/24 10:04:27;;;;;;;10.90;6.83;;;18.40;40.30;;;;;;5056303;28;20489;-82
2021/04/24 10:06:54;;;;;;;10.00;7.37;;;18.50;46.30;;;;;;5053698;28;20530;-84
2021/04/24 10:09:43;;;;;;;9.27;6.73;;;18.50;42.00;;;;;;5053891;28;20448;-85
2021/04/24 10:12:11;;;;;;;8.93;7.30;;;18.70;46.00;;;;;;5036093;28;20545;-85
2021/04/24 10:14:43;;;;;;;8.47;7.63;;;18.70;45.90;;;;;;5032174;28;20441;-85
2021/04/24 10:17:15;;;;;;;9.27;7.30;;;18.70;44.70;;;;;;5052464;28;20832;-83
2021/04/24 10:19:42;;;;;;;8.73;7.83;;;18.70;47.20;;;;;;5056740;28;20505;-84
2021/04/24 10:22:11;;;;;;;12.17;7.20;;;18.80;45.70;;;;;;5054352;28;20440;-84
2021/04/24 10:24:37;;;;;;;9.60;6.83;;;18.90;37.30;;;;;;5053851;28;20437;-83
2021/04/24 10:27:04;;;;;;;10.90;8.03;;;18.90;40.30;;;;;;5055737;28;20477;-83
2021/04/24 10:29:30;;;;;;;10.57;7.20;;;19.00;43.60;;;;;;5051795;28;20913;-84
2021/04/24 10:31:57;;;;;;;10.43;7.97;;;19.10;40.30;;;;;;5052906;28;20436;-84
2021/04/24 10:34:23;;;;;;;9.40;8.40;;;18.80;37.80;;;;;;5055503;28;20487;-84
2021/04/24 10:36:49;;;;;;;10.77;8.10;;;18.80;39.50;;;;;;5073386;28;20561;-84
2021/04/24 10:39:25;;;;;;;10.83;7.47;;;18.10;37.10;;;;;;5053824;28;20182;-84
2021/04/24 10:41:53;;;;;;;8.53;6.27;;;18.20;43.20;;;;;;5052166;28;20458;-84
2021/04/24 10:44:20;;;;;;;9.93;8.07;;;19.00;43.90;;;;;;5054731;28;20913;-84
2021/04/24 10:46:55;;;;;;;10.60;7.90;;;18.90;35.80;;;;;;5053308;28;20477;-84
2021/04/24 10:49:28;;;;;;;8.13;7.00;;;19.00;39.00;;;;;;5049440;28;20467;-87
2021/04/24 10:51:58;;;;;;;8.67;7.50;;;19.20;41.60;;;;;;5053896;28;20456;-86
2021/04/24 10:54:26;;;;;;;10.10;7.80;;;19.70;45.20;;;;;;5055121;28;20501;-86
2021/04/24 10:56:52;;;;;;;9.30;7.20;;;20.40;38.40;;;;;;5057031;28;20592;-86
2021/04/24 10:59:29;;;;;;;10.53;7.87;;;20.60;33.20;;;;;;5055828;28;20576;-84
2021/04/24 11:02:14;;;;;;;8.47;7.37;;;19.70;34.40;;;;;;5052901;28;21149;-85
2021/04/24 11:04:50;;;;;;;8.40;7.50;;;19.80;41.30;;;;;;5052223;28;20441;-85
2021/04/24 11:07:29;;;;;;;10.00;8.17;;;20.00;38.90;;;;;;5054078;28;20581;-85
2021/04/24 11:10:10;;;;;;;9.70;7.17;;;19.80;35.10;;;;;;5054541;28;20425;-85
2021/04/24 11:12:43;;;;;;;9.93;6.67;;;19.70;38.40;;;;;;5058826;28;22027;-83
2021/04/24 11:15:11;;;;;;;9.23;7.10;;;19.60;37.50;;;;;;5053598;28;20463;-85
2021/04/24 11:17:38;;;;;;;10.60;7.77;;;19.60;31.60;;;;;;5058954;28;20488;-84
2021/04/24 11:20:07;;;;;;;11.13;7.30;;;19.70;33.50;;;;;;5056199;28;20803;-84
2021/04/24 11:22:43;;;;;;;11.73;7.70;;;20.00;36.10;;;;;;5053821;28;20440;-86
2021/04/24 11:25:18;;;;;;;6.93;6.07;;;20.80;39.20;;;;;;5057057;28;20447;-85
2021/04/24 11:28:13;;;;;;;10.87;7.97;;;20.70;33.60;;;;;;5073450;28;20443;-85
2021/04/24 11:31:13;;;;;;;8.83;6.97;;;20.70;31.30;;;;;;5056398;28;20425;-86
2021/04/24 11:34:24;;;;;;;8.90;7.00;;;20.50;34.70;;;;;;4972559;28;20481;-86
2021/04/24 11:37:39;;;;;;;8.90;7.10;;;20.30;30.80;;;;;;5054186;28;20473;-87
2021/04/24 11:40:33;;;;;;;9.43;7.30;;;19.80;31.20;;;;;;5045662;28;20480;-86
2021/04/24 11:43:19;;;;;;;9.30;7.90;;;19.30;32.10;;;;;;5077181;28;20436;-86
2021/04/24 11:46:01;;;;;;;9.87;7.17;;;19.60;32.20;;;;;;5056592;28;20440;-85
2021/04/24 11:49:19;;;;;;;8.37;6.10;;;19.60;30.90;;;;;;5051287;28;20811;-86
2021/04/24 11:51:54;;;;;;;8.20;6.80;;;19.40;30.40;;;;;;4993468;28;20448;-86
2021/04/24 11:54:30;;;;;;;8.77;6.60;;;19.90;32.20;;;;;;4974873;28;20436;-85
2021/04/24 11:56:58;;;;;;;8.37;6.30;;;20.20;33.70;;;;;;5025274;28;20881;-86
2021/04/24 11:59:32;;;;;;;10.10;6.60;;;20.50;31.30;;;;;;5058139;28;20448;-86
2021/04/24 12:01:59;;;;;;;8.93;6.83;;;19.90;30.00;;;;;;5050630;28;20842;-86
2021/04/24 12:04:36;;;;;;;8.80;6.73;;;20.10;34.00;;;;;;5053197;28;20783;-87
2021/04/24 12:07:09;;;;;;;6.20;5.37;;;20.60;31.60;;;;;;5056340;28;20440;-87
2021/04/24 12:09:58;;;;;;;7.87;6.90;;;21.80;33.90;;;;;;5065881;28;20452;-86
2021/04/24 12:12:39;;;;;;;8.70;7.23;;;21.90;28.70;;;;;;5055512;28;20435;-87
2021/04/24 12:15:06;;;;;;;9.00;6.50;;;21.20;28.20;;;;;;5053947;28;20445;-87
2021/04/24 12:17:33;;;;;;;8.07;6.30;;;20.50;28.80;;;;;;5055132;28;21833;-86
2021/04/24 12:19:59;;;;;;;10.73;6.83;;;20.50;28.80;;;;;;5053084;28;20443;-86
2021/04/24 12:22:25;;;;;;;6.73;6.03;;;20.40;29.30;;;;;;5053674;28;20492;-85
2021/04/24 12:24:58;;;;;;;7.93;6.30;;;20.70;28.40;;;;;;5055603;28;20476;-85
2021/04/24 12:27:40;;;;;;;8.00;5.73;;;20.60;31.00;;;;;;5069512;28;20644;-87
2021/04/24 12:30:17;;;;;;;8.00;6.50;;;21.40;30.30;;;;;;5069746;28;20456;-85
2021/04/24 12:32:52;;;;;;;10.87;6.40;;;22.10;29.40;;;;;;5058169;28;20436;-94
2021/04/24 12:35:26;;;;;;;8.30;6.20;;;22.00;26.90;;;;;;5051307;28;20810;-88
2021/04/24 12:38:12;;;;;;;7.13;5.27;;;21.60;28.60;;;;;;5052777;28;20798;-88
2021/04/24 12:40:52;;;;;;;6.90;6.27;;;22.30;30.80;;;;;;5053787;28;20979;-90
2021/04/24 12:43:22;;;;;;;8.50;6.43;;;22.10;26.80;;;;;;5056488;28;20428;-90
2021/04/24 12:45:50;;;;;;;7.30;6.33;;;22.00;29.30;;;;;;5052242;28;20767;-87
2021/04/24 12:48:35;;;;;;;7.30;5.40;;;22.50;28.40;;;;;;5053349;28;20436;-90
2021/04/24 12:51:02;;;;;;;7.50;6.23;;;23.10;31.60;;;;;;5060842;28;20435;-91
2021/04/24 12:53:29;;;;;;;7.40;6.63;;;23.60;29.90;;;;;;5052863;28;20429;-88
2021/04/24 12:56:04;;;;;;;7.53;6.30;;;23.40;27.40;;;;;;5074150;28;21200;-91
2021/04/24 12:58:31;;;;;;;7.43;6.73;;;23.30;28.10;;;;;;5065568;28;20793;-90
2021/04/24 13:01:17;;;;;;;7.63;6.90;;;23.90;31.30;;;;;;5057752;28;20746;-89